createdAt,value
2018-12-11T00:01:09.822Z,6.50
2018-12-11T00:03:39.147Z,6.80
2018-12-11T00:06:08.384Z,5.77
2018-12-11T00:08:37.624Z,5.40
2018-12-11T00:11:06.871Z,5.97
2018-12-11T00:13:36.088Z,5.80
2018-12-11T00:16:05.396Z,6.57
2018-12-11T00:18:34.680Z,5.50
2018-12-11T00:21:04.042Z,5.20
2018-12-11T00:23:33.281Z,5.37
2018-12-11T00:26:03.187Z,5.77
2018-12-11T00:28:33.231Z,4.50
2018-12-11T00:31:03.138Z,5.00
2018-12-11T00:33:33.194Z,5.50
2018-12-11T00:36:02.440Z,5.73
2018-12-11T00:38:31.979Z,5.53
2018-12-11T00:41:02.389Z,5.60
2018-12-11T00:43:31.653Z,5.60
2018-12-11T00:46:00.857Z,5.37
2018-12-11T00:48:30.123Z,6.00
2018-12-11T00:50:59.360Z,4.60
2018-12-11T00:53:35.385Z,5.23
2018-12-11T00:56:04.688Z,5.40
2018-12-11T00:58:33.964Z,5.67
2018-12-11T01:01:03.731Z,5.30
2018-12-11T01:03:34.633Z,4.77
2018-12-11T01:06:04.228Z,4.93
2018-12-11T01:08:33.448Z,5.17
2018-12-11T01:11:03.283Z,4.30
2018-12-11T01:13:32.487Z,4.33
2018-12-11T01:16:01.773Z,3.97
2018-12-11T01:18:31.372Z,4.10
2018-12-11T01:21:00.603Z,4.20
2018-12-11T01:23:30.509Z,3.70
2018-12-11T01:25:59.808Z,3.87
2018-12-11T01:28:29.058Z,3.60
2018-12-11T01:30:59.892Z,3.53
2018-12-11T01:33:29.126Z,3.50
2018-12-11T01:35:58.343Z,3.53
2018-12-11T01:38:28.251Z,3.83
2018-12-11T01:40:57.823Z,3.73
2018-12-11T01:43:27.049Z,3.53
2018-12-11T01:45:56.398Z,3.70
2018-12-11T01:48:25.656Z,3.50
2018-12-11T01:50:54.948Z,3.67
2018-12-11T01:53:24.396Z,3.63
2018-12-11T01:55:53.622Z,3.57
2018-12-11T01:58:23.020Z,3.90
2018-12-11T02:00:52.251Z,4.00
2018-12-11T02:03:21.544Z,4.03
2018-12-11T02:05:50.833Z,3.63
2018-12-11T02:08:20.433Z,3.63
2018-12-11T02:10:49.654Z,3.90
2018-12-11T02:13:18.970Z,3.90
2018-12-11T02:15:48.198Z,3.87
2018-12-11T02:18:17.415Z,3.77
2018-12-11T02:20:47.464Z,4.17
2018-12-11T02:23:16.722Z,4.20
2018-12-11T02:25:45.958Z,4.07
2018-12-11T02:28:15.913Z,4.50
2018-12-11T02:30:45.129Z,4.60
2018-12-11T02:33:16.336Z,4.60
2018-12-11T02:35:45.590Z,4.87
2018-12-11T02:38:14.965Z,5.07
2018-12-11T02:40:44.157Z,4.67
2018-12-11T02:43:13.510Z,4.90
2018-12-11T02:45:42.721Z,4.87
2018-12-11T02:48:12.798Z,5.07
2018-12-11T02:50:42.257Z,5.13
2018-12-11T02:53:14.381Z,4.70
2018-12-11T02:55:43.721Z,4.60
2018-12-11T02:58:12.927Z,4.80
2018-12-11T03:00:42.215Z,4.23
2018-12-11T03:03:11.525Z,4.77
2018-12-11T03:05:41.549Z,5.03
2018-12-11T03:08:10.983Z,5.20
2018-12-11T03:10:40.203Z,5.40
2018-12-11T03:13:09.432Z,4.73
2018-12-11T03:15:38.830Z,4.90
2018-12-11T03:18:08.236Z,4.97
2018-12-11T03:20:37.472Z,4.87
2018-12-11T03:23:07.099Z,5.40
2018-12-11T03:25:36.686Z,5.43
2018-12-11T03:28:05.996Z,5.90
2018-12-11T03:30:35.268Z,5.60
2018-12-11T03:33:04.530Z,5.50
2018-12-11T03:35:34.166Z,6.27
2018-12-11T03:38:03.591Z,5.73
2018-12-11T03:47:19.591Z,7.90
2018-12-11T03:49:48.812Z,7.30
2018-12-11T03:52:21.359Z,8.20
2018-12-11T03:54:49.959Z,9.07
2018-12-11T03:57:19.260Z,8.53
2018-12-11T03:59:48.524Z,8.97
2018-12-11T04:02:17.833Z,8.13
2018-12-11T04:04:47.329Z,9.47
2018-12-11T04:07:16.531Z,9.17
2018-12-11T04:09:45.788Z,9.23
2018-12-11T04:12:15.524Z,9.00
2018-12-11T04:14:45.816Z,8.70
2018-12-11T04:17:15.167Z,9.33
2018-12-11T04:19:44.474Z,8.70
2018-12-11T04:22:13.758Z,9.07
2018-12-11T04:24:42.995Z,9.03
2018-12-11T04:27:12.216Z,8.93
2018-12-11T04:29:41.461Z,8.43
2018-12-11T04:32:10.796Z,8.87
2018-12-11T04:34:40.334Z,9.30
2018-12-11T04:37:10.134Z,9.03
2018-12-11T04:39:39.394Z,8.60
2018-12-11T04:42:08.638Z,9.37
2018-12-11T04:44:38.467Z,8.93
2018-12-11T04:47:07.670Z,8.27
2018-12-11T04:49:36.893Z,9.27
2018-12-11T04:52:10.263Z,9.13
2018-12-11T04:54:40.982Z,9.23
2018-12-11T04:57:11.813Z,9.07
2018-12-11T04:59:41.064Z,8.50
2018-12-11T05:02:10.557Z,8.80
2018-12-11T05:04:39.947Z,8.57
2018-12-11T05:07:09.160Z,9.57
2018-12-11T05:09:39.051Z,8.70
2018-12-11T05:12:08.688Z,8.50
2018-12-11T05:14:37.896Z,8.20
2018-12-11T05:17:07.161Z,7.93
2018-12-11T05:19:37.095Z,8.03
2018-12-11T05:22:06.365Z,8.40
2018-12-11T05:24:35.598Z,8.77
2018-12-11T05:27:04.799Z,8.40
2018-12-11T05:29:34.039Z,8.80
2018-12-11T05:32:03.320Z,8.33
2018-12-11T05:34:33.033Z,8.80
2018-12-11T05:37:02.627Z,8.70
2018-12-11T05:39:31.904Z,8.47
2018-12-11T05:42:01.223Z,8.30
2018-12-11T05:44:30.473Z,8.90
2018-12-11T05:47:00.371Z,8.40
2018-12-11T05:49:31.373Z,8.57
2018-12-11T05:52:00.664Z,8.80
2018-12-11T05:54:29.981Z,8.83
2018-12-11T05:56:59.282Z,9.10
2018-12-11T05:59:28.525Z,8.67
2018-12-11T06:01:57.782Z,8.27
2018-12-11T06:04:27.059Z,8.57
2018-12-11T06:06:56.839Z,9.57
2018-12-11T06:09:26.185Z,8.53
2018-12-11T06:11:55.995Z,8.97
2018-12-11T06:14:25.304Z,8.53
2018-12-11T06:16:54.604Z,8.50
2018-12-11T06:19:24.506Z,9.37
2018-12-11T06:21:55.641Z,7.77
2018-12-11T06:24:24.962Z,9.03
2018-12-11T06:26:55.838Z,9.30
2018-12-11T06:29:26.388Z,8.77
2018-12-11T06:31:57.684Z,8.63
2018-12-11T06:34:27.365Z,9.57
2018-12-11T06:36:57.060Z,8.77
2018-12-11T06:39:26.393Z,9.40
2018-12-11T06:41:56.767Z,8.93
2018-12-11T06:44:26.633Z,9.50
2018-12-11T06:46:56.691Z,9.10
2018-12-11T06:49:27.839Z,10.10
2018-12-11T06:51:57.394Z,8.90
2018-12-11T06:54:26.629Z,8.83
2018-12-11T06:56:57.212Z,9.33
2018-12-11T06:59:27.078Z,8.97
2018-12-11T07:01:56.840Z,9.00
2018-12-11T07:04:26.615Z,8.90
2018-12-11T07:06:56.576Z,9.13
2018-12-11T07:09:26.150Z,9.00
2018-12-11T07:11:55.447Z,9.20
2018-12-11T07:14:24.723Z,8.63
2018-12-11T07:16:54.617Z,8.77
2018-12-11T07:19:25.061Z,9.07
2018-12-11T07:21:54.897Z,9.33
2018-12-11T07:24:25.759Z,8.77
2018-12-11T07:26:56.589Z,9.83
2018-12-11T07:29:26.326Z,8.47
2018-12-11T07:31:56.413Z,8.57
2018-12-11T07:34:25.644Z,8.40
2018-12-11T07:36:55.403Z,8.67
2018-12-11T07:39:26.847Z,8.33
2018-12-11T07:41:56.089Z,7.80
2018-12-11T07:44:25.340Z,8.13
2018-12-11T07:46:54.658Z,8.70
2018-12-11T07:49:24.698Z,8.47
2018-12-11T07:51:55.092Z,8.63
2018-12-11T07:54:24.565Z,8.13
2018-12-11T07:56:54.145Z,8.47
2018-12-11T07:59:23.380Z,7.30
2018-12-11T08:01:53.003Z,8.23
2018-12-11T08:04:23.444Z,8.00
2018-12-11T08:06:52.700Z,8.23
2018-12-11T08:09:22.541Z,8.17
2018-12-11T08:11:52.242Z,7.37
2018-12-11T08:14:21.496Z,8.07
2018-12-11T08:16:50.774Z,8.43
2018-12-11T08:19:20.156Z,8.20
2018-12-11T08:21:50.484Z,9.00
2018-12-11T08:24:19.788Z,8.53
2018-12-11T08:26:50.119Z,7.93
2018-12-11T08:29:19.355Z,7.10
2018-12-11T08:31:49.050Z,7.23
2018-12-11T08:34:18.271Z,7.27
2018-12-11T08:36:47.607Z,7.93
2018-12-11T08:39:16.810Z,7.83
2018-12-11T08:41:46.118Z,7.93
2018-12-11T08:44:15.543Z,7.37
2018-12-11T08:46:44.910Z,8.73
2018-12-11T08:49:14.219Z,7.80
2018-12-11T08:51:43.577Z,8.30
2018-12-11T08:54:12.935Z,7.57
2018-12-11T08:56:42.342Z,8.50
2018-12-11T08:59:11.613Z,8.03
2018-12-11T09:01:41.000Z,8.43
2018-12-11T09:04:10.259Z,9.07
2018-12-11T09:06:39.569Z,8.43
2018-12-11T09:09:10.018Z,9.00
2018-12-11T09:11:39.238Z,8.10
2018-12-11T09:14:08.433Z,8.60
2018-12-11T09:16:37.663Z,8.37
2018-12-11T09:19:07.171Z,8.17
2018-12-11T09:21:36.422Z,8.27
2018-12-11T09:24:06.878Z,8.20
2018-12-11T09:26:36.114Z,9.27
2018-12-11T09:29:05.385Z,8.47
2018-12-11T09:31:35.015Z,9.27
2018-12-11T09:34:06.068Z,8.57
2018-12-11T09:36:35.380Z,9.27
2018-12-11T09:39:07.307Z,9.07
2018-12-11T09:41:36.747Z,10.13
2018-12-11T09:44:06.239Z,9.67
2018-12-11T09:46:36.154Z,8.90
2018-12-11T09:49:05.503Z,10.27
2018-12-11T09:51:35.118Z,8.33
2018-12-11T09:54:04.852Z,9.17
2018-12-11T09:56:35.341Z,9.23
2018-12-11T09:59:04.758Z,9.70
2018-12-11T10:01:34.256Z,9.30
2018-12-11T10:04:04.424Z,9.33
2018-12-11T10:06:34.374Z,9.00
2018-12-11T10:09:06.566Z,9.30
2018-12-11T10:11:35.876Z,8.53
2018-12-11T10:14:06.115Z,8.60
2018-12-11T10:16:36.050Z,8.70
2018-12-11T10:19:05.893Z,9.37
2018-12-11T10:21:35.424Z,9.43
2018-12-11T10:24:05.392Z,9.23
2018-12-11T10:26:35.120Z,9.47
2018-12-11T10:29:05.862Z,9.57
2018-12-11T10:31:35.170Z,9.37
2018-12-11T10:34:05.664Z,9.17
2018-12-11T10:36:35.252Z,9.03
2018-12-11T10:39:08.652Z,8.57
2018-12-11T10:41:37.878Z,9.03
2018-12-11T10:44:07.149Z,8.00
2018-12-11T10:46:36.415Z,9.33
2018-12-11T10:49:05.963Z,8.23
2018-12-11T10:51:36.631Z,9.27
2018-12-11T10:54:06.946Z,8.50
2018-12-11T10:56:36.230Z,8.30
2018-12-11T10:59:05.484Z,8.03
2018-12-11T11:01:40.556Z,7.10
2018-12-11T11:04:10.576Z,7.70
2018-12-11T11:06:39.828Z,7.50
2018-12-11T11:09:09.295Z,6.80
2018-12-11T11:11:39.503Z,7.20
2018-12-11T11:14:08.770Z,7.17
2018-12-11T11:16:38.052Z,7.67
2018-12-11T11:19:08.088Z,7.57
2018-12-11T11:21:37.783Z,7.53
2018-12-11T11:24:07.037Z,8.53
2018-12-11T11:26:36.786Z,8.47
2018-12-11T11:29:06.558Z,8.67
2018-12-11T11:31:35.896Z,8.60
2018-12-11T11:34:05.218Z,8.90
2018-12-11T11:36:34.508Z,8.30
2018-12-11T11:39:05.287Z,7.80
2018-12-11T11:41:34.560Z,9.83
2018-12-11T11:44:04.158Z,8.00
2018-12-11T11:46:33.411Z,7.83
2018-12-11T11:49:02.638Z,8.83
2018-12-11T11:51:31.883Z,10.70
2018-12-11T11:54:01.122Z,9.37
2018-12-11T11:56:30.871Z,8.90
2018-12-11T11:59:00.435Z,9.43
2018-12-11T12:01:29.840Z,8.87
2018-12-11T12:03:59.078Z,9.57
2018-12-11T12:06:28.350Z,8.60
2018-12-11T12:08:59.412Z,8.53
2018-12-11T12:11:28.995Z,8.00
2018-12-11T12:13:59.146Z,8.13
2018-12-11T12:16:29.288Z,8.73
2018-12-11T12:18:59.744Z,8.53
2018-12-11T12:21:28.995Z,8.27
2018-12-11T12:23:58.257Z,8.40
2018-12-11T12:26:28.461Z,7.83
2018-12-11T12:28:57.780Z,9.13
2018-12-11T12:31:27.378Z,8.20
2018-12-11T12:33:57.238Z,8.30
2018-12-11T12:36:27.132Z,9.30
2018-12-11T12:38:56.995Z,9.00
2018-12-11T12:41:26.332Z,9.93
2018-12-11T12:43:55.600Z,8.87
2018-12-11T12:46:25.111Z,9.17
2018-12-11T12:48:54.601Z,8.87
2018-12-11T12:51:23.843Z,9.20
2018-12-11T12:53:53.094Z,9.27
2018-12-11T12:56:22.488Z,8.90
2018-12-11T12:58:51.732Z,9.27
2018-12-11T13:01:20.997Z,8.50
2018-12-11T13:03:50.260Z,9.00
2018-12-11T13:06:20.447Z,9.83
2018-12-11T13:08:49.712Z,9.00
2018-12-11T13:11:18.974Z,9.60
2018-12-11T13:13:48.312Z,9.07
2018-12-11T13:16:18.679Z,10.30
2018-12-11T13:18:47.931Z,9.00
2018-12-11T13:21:17.202Z,9.47
2018-12-11T13:23:46.484Z,10.03
2018-12-11T13:26:15.774Z,9.47
2018-12-11T13:28:45.083Z,8.60
2018-12-11T13:31:15.232Z,9.57
2018-12-11T13:33:44.478Z,10.30
2018-12-11T13:36:13.969Z,9.03
2018-12-11T13:38:43.457Z,9.20
2018-12-11T13:41:13.452Z,8.80
2018-12-11T13:43:43.832Z,9.30
2018-12-11T13:46:13.919Z,8.93
2018-12-11T13:48:44.091Z,9.27
2018-12-11T13:51:13.384Z,8.73
2018-12-11T13:56:18.831Z,9.47
2018-12-11T13:58:48.165Z,9.03
2018-12-11T14:01:20.083Z,8.97
2018-12-11T14:03:49.369Z,9.23
2018-12-11T14:06:18.634Z,9.17
2018-12-11T14:08:48.306Z,10.57
2018-12-11T14:11:18.680Z,9.73
2018-12-11T14:13:50.234Z,9.60
2018-12-11T14:16:19.494Z,9.93
2018-12-11T14:18:48.741Z,9.57
2018-12-11T14:21:18.034Z,9.67
2018-12-11T14:23:47.368Z,9.27
2018-12-11T14:26:17.794Z,9.20
2018-12-11T14:28:47.535Z,9.77
2018-12-11T14:31:16.812Z,9.07
2018-12-11T14:33:49.532Z,8.87
2018-12-11T14:36:21.061Z,9.60
2018-12-11T14:38:54.442Z,9.27
2018-12-11T14:41:26.881Z,10.27
2018-12-11T14:43:56.158Z,9.47
2018-12-11T14:46:25.446Z,8.83
2018-12-11T14:48:54.809Z,8.67
2018-12-11T14:51:24.055Z,9.47
2018-12-11T14:53:53.994Z,9.10
2018-12-11T14:56:23.363Z,10.30
2018-12-11T14:58:59.640Z,10.37
2018-12-11T15:01:32.963Z,9.70
2018-12-11T15:04:02.190Z,9.63
2018-12-11T15:06:32.878Z,10.17
2018-12-11T15:09:08.104Z,10.20
2018-12-11T15:11:37.455Z,10.30
2018-12-11T15:14:06.764Z,9.70
2018-12-11T15:16:39.019Z,9.93
2018-12-11T15:19:09.452Z,9.33
2018-12-11T15:21:42.609Z,10.20
2018-12-11T15:24:12.306Z,10.30
2018-12-11T15:26:41.533Z,10.07
2018-12-11T15:29:10.800Z,10.07
2018-12-11T15:31:40.066Z,10.07
2018-12-11T15:34:09.438Z,9.70
2018-12-11T15:36:47.787Z,10.23
2018-12-11T15:39:18.059Z,10.00
2018-12-11T15:41:53.653Z,10.63
2018-12-11T15:44:23.764Z,9.90
2018-12-11T15:46:54.246Z,9.53
2018-12-11T15:49:26.269Z,9.93
2018-12-11T15:51:59.814Z,10.47
2018-12-11T15:54:31.863Z,11.00
2018-12-11T15:57:02.790Z,10.50
2018-12-11T15:59:32.053Z,10.90
2018-12-11T16:02:07.730Z,10.70
2018-12-11T16:04:36.980Z,10.23
2018-12-11T16:07:06.919Z,9.13
2018-12-11T16:09:36.573Z,9.13
2018-12-11T16:12:07.164Z,9.83
2018-12-11T16:14:38.763Z,9.67
2018-12-11T16:17:20.608Z,8.67
2018-12-11T16:19:59.611Z,10.30
2018-12-11T16:22:52.602Z,9.10
2018-12-11T16:25:35.478Z,9.20
2018-12-11T16:28:07.471Z,9.33
2018-12-11T16:30:38.356Z,8.23
2018-12-11T16:33:07.862Z,9.23
2018-12-11T16:35:37.292Z,10.27
2018-12-11T16:38:09.034Z,10.17
2018-12-11T16:40:38.772Z,9.63
2018-12-11T16:43:09.407Z,9.30
2018-12-11T16:45:38.988Z,9.53
2018-12-11T16:48:08.281Z,9.30
2018-12-11T16:50:40.318Z,8.87
2018-12-11T16:53:11.310Z,8.70
2018-12-11T16:55:43.722Z,9.43
2018-12-11T16:58:15.844Z,9.20
2018-12-11T17:00:56.360Z,9.43
2018-12-11T17:03:27.830Z,9.40
2018-12-11T17:05:57.927Z,9.10
2018-12-11T17:08:27.211Z,8.80
2018-12-11T17:10:57.757Z,8.87
2018-12-11T17:13:27.543Z,9.03
2018-12-11T17:15:58.430Z,9.70
2018-12-11T17:18:28.879Z,8.63
2018-12-11T17:20:58.449Z,8.47
2018-12-11T17:23:29.554Z,9.27
2018-12-11T17:26:00.088Z,9.17
2018-12-11T17:28:29.638Z,8.10
2018-12-11T17:30:59.324Z,9.17
2018-12-11T17:33:28.607Z,8.40
2018-12-11T17:35:58.161Z,8.80
2018-12-11T17:38:27.706Z,8.13
2018-12-11T17:40:57.323Z,8.90
2018-12-11T17:43:26.539Z,9.00
2018-12-11T17:45:56.948Z,8.40
2018-12-11T17:48:27.235Z,9.03
2018-12-11T17:50:57.268Z,9.03
2018-12-11T17:53:28.561Z,8.97
2018-12-11T17:55:58.084Z,8.93
2018-12-11T17:58:28.159Z,8.87
2018-12-11T18:00:57.600Z,9.03
2018-12-11T18:03:26.881Z,8.67
2018-12-11T18:05:56.118Z,8.50
2018-12-11T18:08:25.349Z,8.30
2018-12-11T18:10:54.903Z,8.97
2018-12-11T18:13:24.097Z,8.23
2018-12-11T18:15:54.900Z,8.30
2018-12-11T18:18:25.370Z,7.50
2018-12-11T18:20:54.580Z,8.00
2018-12-11T18:23:24.820Z,7.77
2018-12-11T18:25:54.166Z,7.97
2018-12-11T18:28:23.525Z,8.03
2018-12-11T18:30:53.583Z,7.87
2018-12-11T18:40:10.773Z,9.00
2018-12-11T18:42:40.025Z,7.93
2018-12-11T18:45:09.870Z,8.40
2018-12-11T18:47:39.209Z,7.73
2018-12-11T18:50:08.411Z,8.70
2018-12-11T18:52:38.907Z,8.13
2018-12-11T18:55:08.495Z,8.93
2018-12-11T18:57:38.831Z,8.90
2018-12-11T19:00:11.346Z,8.60
2018-12-11T19:02:40.574Z,9.17
2018-12-11T19:05:11.448Z,9.17
2018-12-11T19:07:40.698Z,9.17
2018-12-11T19:10:09.926Z,9.73
2018-12-11T19:12:39.180Z,9.53
2018-12-11T19:15:08.632Z,8.80
2018-12-11T19:17:38.007Z,8.87
2018-12-11T19:20:08.280Z,9.17
2018-12-11T19:22:39.256Z,8.80
2018-12-11T19:25:12.266Z,9.17
2018-12-11T19:27:42.082Z,8.47
2018-12-11T19:30:16.187Z,9.00
2018-12-11T19:32:46.284Z,9.23
2018-12-11T19:35:15.600Z,8.33
2018-12-11T19:37:44.872Z,8.77
2018-12-11T19:40:15.241Z,7.67
2018-12-11T19:42:45.484Z,8.47
2018-12-11T19:45:15.607Z,8.03
2018-12-11T19:47:45.081Z,8.10
2018-12-11T19:50:14.361Z,7.63
2018-12-11T19:52:44.445Z,7.70
2018-12-11T19:55:15.167Z,7.87
2018-12-11T19:57:44.406Z,21.93
2018-12-11T20:00:14.018Z,10.17
2018-12-11T20:02:43.525Z,8.13
2018-12-11T20:05:13.623Z,7.63
2018-12-11T20:07:42.909Z,10.90
2018-12-11T20:10:15.830Z,9.13
2018-12-11T20:12:45.197Z,7.73
2018-12-11T20:15:15.922Z,6.83
2018-12-11T20:17:45.531Z,7.10
2018-12-11T20:20:25.536Z,6.70
2018-12-11T20:22:54.996Z,6.00
2018-12-11T20:25:25.210Z,7.23
2018-12-11T20:27:54.735Z,6.70
2018-12-11T20:30:24.053Z,6.17
2018-12-11T20:32:53.307Z,5.87
2018-12-11T20:35:24.949Z,5.27
2018-12-11T20:38:00.019Z,5.43
2018-12-11T20:40:30.744Z,5.70
2018-12-11T20:43:01.829Z,5.63
2018-12-11T20:45:31.228Z,4.47
2018-12-11T20:48:01.420Z,4.80
2018-12-11T20:50:30.775Z,4.20
2018-12-11T20:53:01.062Z,4.90
2018-12-11T20:55:31.386Z,5.07
2018-12-11T20:58:00.632Z,5.33
2018-12-11T21:00:34.899Z,4.90
2018-12-11T21:03:04.292Z,4.87
2018-12-11T21:05:33.627Z,4.50
2018-12-11T21:08:02.932Z,4.77
2018-12-11T21:10:32.353Z,4.73
2018-12-11T21:13:01.575Z,4.60
2018-12-11T21:15:30.942Z,4.73
2018-12-11T21:18:00.216Z,4.90
2018-12-11T21:20:29.432Z,5.10
2018-12-11T21:22:58.850Z,5.50
2018-12-11T21:25:28.636Z,5.43
2018-12-11T21:27:57.959Z,4.80
2018-12-11T21:30:27.292Z,5.70
2018-12-11T21:32:56.808Z,5.00
2018-12-11T21:35:26.187Z,5.30
2018-12-11T21:37:55.505Z,4.20
2018-12-11T21:40:24.694Z,5.60
2018-12-11T21:42:54.204Z,5.23
2018-12-11T21:45:23.422Z,5.53
2018-12-11T21:47:52.747Z,5.80
2018-12-11T21:50:22.029Z,5.70
2018-12-11T21:52:51.289Z,5.60
2018-12-11T21:55:20.786Z,6.30
2018-12-11T21:57:50.164Z,5.90
2018-12-11T22:00:19.467Z,5.97
2018-12-11T22:02:49.025Z,5.30
2018-12-11T22:05:18.312Z,6.00
2018-12-11T22:07:48.434Z,5.33
2018-12-11T22:10:18.593Z,6.13
2018-12-11T22:12:48.320Z,5.40
2018-12-11T22:15:18.400Z,6.00
2018-12-11T22:17:47.815Z,5.63
2018-12-11T22:20:17.420Z,5.50
2018-12-11T22:22:46.725Z,5.50
2018-12-11T22:25:15.918Z,4.77
2018-12-11T22:27:45.804Z,4.93
2018-12-11T22:30:15.428Z,4.57
2018-12-11T22:32:44.685Z,5.00
2018-12-11T22:35:13.904Z,4.33
2018-12-11T22:37:43.479Z,5.03
2018-12-11T22:40:15.019Z,4.40
2018-12-11T22:42:45.551Z,4.30
2018-12-11T22:45:15.609Z,4.17
2018-12-11T22:47:45.117Z,4.13
2018-12-11T22:50:15.571Z,4.17
2018-12-11T22:52:45.398Z,3.83
2018-12-11T22:55:14.685Z,3.73
2018-12-11T22:57:43.950Z,3.80
2018-12-11T23:00:13.307Z,3.60
2018-12-11T23:02:42.674Z,3.70
2018-12-11T23:05:12.566Z,4.10
2018-12-11T23:07:42.134Z,3.90
2018-12-11T23:10:11.388Z,4.20
2018-12-11T23:12:41.421Z,4.23
2018-12-11T23:15:11.562Z,3.60
2018-12-11T23:17:43.761Z,3.70
2018-12-11T23:20:13.014Z,3.67
2018-12-11T23:25:20.346Z,3.57
2018-12-11T23:27:49.941Z,3.60
2018-12-11T23:30:19.316Z,4.20
2018-12-11T23:32:49.389Z,3.67
2018-12-11T23:35:18.712Z,4.30
2018-12-11T23:37:48.743Z,3.97
2018-12-11T23:40:18.149Z,3.43
2018-12-11T23:42:48.098Z,3.40
2018-12-11T23:45:17.525Z,3.60
2018-12-11T23:47:46.965Z,3.53
2018-12-11T23:50:17.296Z,3.20
2018-12-11T23:52:46.687Z,3.13
2018-12-11T23:55:15.925Z,3.20
2018-12-11T23:57:45.163Z,3.40
